Maersk Iowa — KABL — position and weather

sailwx.info

Track history (hours):
 
Tides and Currents Weather Stations Pressure Air Temp Water Temp Dewpoint Dewpoint Depression Visibility Wind Speed Wind Dir Waves Ship Positions

Maersk Iowa

Owner: FARRELL LINES INC, Norfolk, VA. More information available from US FCC via Universal Licensing System and Coast Guard Vessel Documentation Center.

Last reported at 2017-Jan-17 18:00 UTC. Time now 2017-Jan-17 21:24 UTC.
Position N 39°48' W 056°12'.

Length 292 m; draft 12 m.

Type: Ship (hazmat cat A). MMSI: 367606000.

Wind from 280 at 25 knots

Barometer 1016.8 mb
Air temperature 16.0 ° C
Visibility: greater than 27.0 NM
Dewpoint 10.4 ° C
Water temperature 21.0 ° C

Date/timePositionNaut miles runAvg speedWind from/ knotsBaromVisibWave heightAir tempDewpointWater temp
2017-Jan-17 18:00N 39°48' W 056°12'26722.2 280 / 251016.827.0 16.010.421.0
2017-Jan-17 06:00N 38°48' W 061°48'14123.5 010 / 121026.110.8 13.0 4.321.0
2017-Jan-17 00:00N 38°12' W 064°42'14023.4 060 / 131029.7 9.0 1.825.0
2017-Jan-16 18:00N 37°42' W 067°36'13222.0 360 / 111028.810.8 14.0 5.625.0
2017-Jan-16 12:00N 37°12' W 070°18'27419.8 360 / 10 13.0 6.825.0
2017-Jan-15 22:11N 36°57' W 076°00'914.2
2017-Jan-15 21:33N 36°60' W 076°11'10 9.7
2017-Jan-15 20:34N 36°53' W 076°20'1 1.0
2017-Jan-15 19:32N 36°53' W 076°21'0 0.0
2017-Jan-15 18:20N 36°53' W 076°21'0 0.0
2017-Jan-15 17:14N 36°53' W 076°21'0 0.0
2017-Jan-15 16:33N 36°53' W 076°21'0 0.0
2017-Jan-15 15:34N 36°53' W 076°21'0 0.0
2017-Jan-15 14:34N 36°53' W 076°21'0 0.0
2017-Jan-15 13:34N 36°53' W 076°21'0 0.0
2017-Jan-15 12:25N 36°53' W 076°21'0 0.0
2017-Jan-15 11:34N 36°53' W 076°21'0 0.0
2017-Jan-15 10:34N 36°53' W 076°21'0 0.0
2017-Jan-15 09:34N 36°53' W 076°21'0 0.0
2017-Jan-15 08:33N 36°53' W 076°21'0 0.0
2017-Jan-15 07:33N 36°53' W 076°21'0 0.0
2017-Jan-15 06:33N 36°53' W 076°21'0 0.0
2017-Jan-15 05:34N 36°53' W 076°21'0 0.0
2017-Jan-15 04:33N 36°53' W 076°21'0 0.0
2017-Jan-15 03:33N 36°53' W 076°21'0 0.0
2017-Jan-15 02:34N 36°53' W 076°21'0 0.0
2017-Jan-15 01:34N 36°53' W 076°21'0 0.0
2017-Jan-15 00:33N 36°53' W 076°21'0 0.0
2017-Jan-14 23:33N 36°53' W 076°21'0 0.0
2017-Jan-14 22:34N 36°53' W 076°21'5 5.4
2017-Jan-14 21:33N 36°58' W 076°20'1413.6
2017-Jan-14 20:33N 36°58' W 076°03'8 8.3
2017-Jan-14 19:33N 36°54' W 075°54'8 7.8
2017-Jan-14 18:33N 36°49' W 075°46'9 9.3
2017-Jan-14 17:33N 36°43' W 075°38'266 7.5
2017-Jan-13 06:00N 32°30' W 077°18'34717.6 220 / 51030.810.8 21.512.826.9
2017-Jan-12 10:14N 27°07' W 079°45'1623.0
2017-Jan-12 09:33N 26°51' W 079°46'2322.9
2017-Jan-12 08:33N 26°28' W 079°48'2222.4
2017-Jan-12 07:34N 26°06' W 079°51'2222.3
2017-Jan-12 06:34N 25°44' W 079°54'2222.1
2017-Jan-12 05:34N 25°22' W 079°59'83117.2
2017-Jan-10 05:13N 29°31' W 094°53'710.4
2017-Jan-10 04:33N 29°37' W 094°57'3 1.3
2017-Jan-10 02:31N 29°37' W 095°00'0 0.0
2017-Jan-10 01:31N 29°37' W 095°00'0 0.0
2017-Jan-10 00:33N 29°37' W 095°00'0 0.0
2017-Jan-09 23:33N 29°37' W 095°00'0 0.0
2017-Jan-09 22:33N 29°37' W 095°00'0 0.0
2017-Jan-09 21:33N 29°37' W 095°00'0 0.0
2017-Jan-09 20:33N 29°37' W 095°00'0 0.0
2017-Jan-09 19:33N 29°37' W 095°00'0 0.0
2017-Jan-09 18:33N 29°37' W 095°00'0 0.0
2017-Jan-09 17:33N 29°37' W 095°00'0 0.0
2017-Jan-09 16:33N 29°37' W 095°00'0 0.0
2017-Jan-09 15:33N 29°37' W 095°00'0 0.0
2017-Jan-09 14:33N 29°37' W 095°00'0 0.0
2017-Jan-09 13:33N 29°37' W 095°00'0 0.0
2017-Jan-09 12:33N 29°37' W 095°00'0 0.0
2017-Jan-09 11:33N 29°37' W 095°00'0 0.0
2017-Jan-09 10:31N 29°37' W 095°00'0 0.0
2017-Jan-09 09:25N 29°37' W 095°00'0 0.0
2017-Jan-09 08:33N 29°37' W 095°00'0 0.0
2017-Jan-09 07:33N 29°37' W 095°00'0 0.0
2017-Jan-09 06:33N 29°37' W 095°00'0 0.0
2017-Jan-09 05:33N 29°37' W 095°00'0 0.0
2017-Jan-09 04:33N 29°37' W 095°00'0 0.0
2017-Jan-09 03:33N 29°37' W 095°00'0 0.0
2017-Jan-09 02:33N 29°37' W 095°00'0 0.0
2017-Jan-09 01:33N 29°37' W 095°00'0 0.0
2017-Jan-09 00:33N 29°37' W 095°00'0 0.0
2017-Jan-08 23:33N 29°37' W 095°00'1 0.6
2017-Jan-08 22:33N 29°37' W 095°01'6 6.5
2017-Jan-08 21:34N 29°33' W 094°55'57020.7
2017-Jan-07 18:00N 25°12' W 085°24'   340 / 271020.710.8 24.019.426.1
Track history (hours):
 
Tides and Currents Weather Stations Pressure Air Temp Water Temp Dewpoint Dewpoint Depression Visibility Wind Speed Wind Dir Waves Ship Positions

Maersk Iowa

Owner: FARRELL LINES INC, Norfolk, VA. More information available from US FCC via Universal Licensing System and Coast Guard Vessel Documentation Center.

Last reported at 2017-Jan-17 18:00 UTC. Time now 2017-Jan-17 21:24 UTC.
Position N 39°48' W 056°12'.

Length 292 m; draft 12 m.

Type: Ship (hazmat cat A). MMSI: 367606000.

Wind from 280 at 25 knots

Barometer 1016.8 mb
Air temperature 16.0 ° C
Visibility: greater than 27.0 NM
Dewpoint 10.4 ° C
Water temperature 21.0 ° C

Date/timePositionNaut miles runAvg speedWind from/ knotsBaromVisibWave heightAir tempDewpointWater temp
2017-Jan-17 18:00N 39°48' W 056°12'26722.2 280 / 251016.827.0 16.010.421.0
2017-Jan-17 06:00N 38°48' W 061°48'14123.5 010 / 121026.110.8 13.0 4.321.0
2017-Jan-17 00:00N 38°12' W 064°42'14023.4 060 / 131029.7 9.0 1.825.0
2017-Jan-16 18:00N 37°42' W 067°36'13222.0 360 / 111028.810.8 14.0 5.625.0
2017-Jan-16 12:00N 37°12' W 070°18'27419.8 360 / 10 13.0 6.825.0
2017-Jan-15 22:11N 36°57' W 076°00'914.2
2017-Jan-15 21:33N 36°60' W 076°11'10 9.7
2017-Jan-15 20:34N 36°53' W 076°20'1 1.0
2017-Jan-15 19:32N 36°53' W 076°21'0 0.0
2017-Jan-15 18:20N 36°53' W 076°21'0 0.0
2017-Jan-15 17:14N 36°53' W 076°21'0 0.0
2017-Jan-15 16:33N 36°53' W 076°21'0 0.0
2017-Jan-15 15:34N 36°53' W 076°21'0 0.0
2017-Jan-15 14:34N 36°53' W 076°21'0 0.0
2017-Jan-15 13:34N 36°53' W 076°21'0 0.0
2017-Jan-15 12:25N 36°53' W 076°21'0 0.0
2017-Jan-15 11:34N 36°53' W 076°21'0 0.0
2017-Jan-15 10:34N 36°53' W 076°21'0 0.0
2017-Jan-15 09:34N 36°53' W 076°21'0 0.0
2017-Jan-15 08:33N 36°53' W 076°21'0 0.0
2017-Jan-15 07:33N 36°53' W 076°21'0 0.0
2017-Jan-15 06:33N 36°53' W 076°21'0 0.0
2017-Jan-15 05:34N 36°53' W 076°21'0 0.0
2017-Jan-15 04:33N 36°53' W 076°21'0 0.0
2017-Jan-15 03:33N 36°53' W 076°21'0 0.0
2017-Jan-15 02:34N 36°53' W 076°21'0 0.0
2017-Jan-15 01:34N 36°53' W 076°21'0 0.0
2017-Jan-15 00:33N 36°53' W 076°21'0 0.0
2017-Jan-14 23:33N 36°53' W 076°21'0 0.0
2017-Jan-14 22:34N 36°53' W 076°21'5 5.4
2017-Jan-14 21:33N 36°58' W 076°20'1413.6
2017-Jan-14 20:33N 36°58' W 076°03'8 8.3
2017-Jan-14 19:33N 36°54' W 075°54'8 7.8
2017-Jan-14 18:33N 36°49' W 075°46'9 9.3
2017-Jan-14 17:33N 36°43' W 075°38'266 7.5
2017-Jan-13 06:00N 32°30' W 077°18'34717.6 220 / 51030.810.8 21.512.826.9
2017-Jan-12 10:14N 27°07' W 079°45'1623.0
2017-Jan-12 09:33N 26°51' W 079°46'2322.9
2017-Jan-12 08:33N 26°28' W 079°48'2222.4
2017-Jan-12 07:34N 26°06' W 079°51'2222.3
2017-Jan-12 06:34N 25°44' W 079°54'2222.1
2017-Jan-12 05:34N 25°22' W 079°59'83117.2
2017-Jan-10 05:13N 29°31' W 094°53'710.4
2017-Jan-10 04:33N 29°37' W 094°57'3 1.3
2017-Jan-10 02:31N 29°37' W 095°00'0 0.0
2017-Jan-10 01:31N 29°37' W 095°00'0 0.0
2017-Jan-10 00:33N 29°37' W 095°00'0 0.0
2017-Jan-09 23:33N 29°37' W 095°00'0 0.0
2017-Jan-09 22:33N 29°37' W 095°00'0 0.0
2017-Jan-09 21:33N 29°37' W 095°00'0 0.0
2017-Jan-09 20:33N 29°37' W 095°00'0 0.0
2017-Jan-09 19:33N 29°37' W 095°00'0 0.0
2017-Jan-09 18:33N 29°37' W 095°00'0 0.0
2017-Jan-09 17:33N 29°37' W 095°00'0 0.0
2017-Jan-09 16:33N 29°37' W 095°00'0 0.0
2017-Jan-09 15:33N 29°37' W 095°00'0 0.0
2017-Jan-09 14:33N 29°37' W 095°00'0 0.0
2017-Jan-09 13:33N 29°37' W 095°00'0 0.0
2017-Jan-09 12:33N 29°37' W 095°00'0 0.0
2017-Jan-09 11:33N 29°37' W 095°00'0 0.0
2017-Jan-09 10:31N 29°37' W 095°00'0 0.0
2017-Jan-09 09:25N 29°37' W 095°00'0 0.0
2017-Jan-09 08:33N 29°37' W 095°00'0 0.0
2017-Jan-09 07:33N 29°37' W 095°00'0 0.0
2017-Jan-09 06:33N 29°37' W 095°00'0 0.0
2017-Jan-09 05:33N 29°37' W 095°00'0 0.0
2017-Jan-09 04:33N 29°37' W 095°00'0 0.0
2017-Jan-09 03:33N 29°37' W 095°00'0 0.0
2017-Jan-09 02:33N 29°37' W 095°00'0 0.0
2017-Jan-09 01:33N 29°37' W 095°00'0 0.0
2017-Jan-09 00:33N 29°37' W 095°00'0 0.0
2017-Jan-08 23:33N 29°37' W 095°00'1 0.6
2017-Jan-08 22:33N 29°37' W 095°01'6 6.5
2017-Jan-08 21:34N 29°33' W 094°55'57020.7
2017-Jan-07 18:00N 25°12' W 085°24'   340 / 271020.710.8 24.019.426.1

Dump ship's entire track history